sensor_id;sensor_type;location;lat;lon;timestamp;pressure;altitude;pressure_sealevel;temperature;humidity
13387;BME280;6763;48.524;9.044;2023-05-19T00:01:06;98192.78;;;18.83;36.62
13387;BME280;6763;48.524;9.044;2023-05-19T00:03:32;98191.16;;;18.80;36.70
13387;BME280;6763;48.524;9.044;2023-05-19T00:06:00;98188.59;;;18.79;36.66
13387;BME280;6763;48.524;9.044;2023-05-19T00:08:29;98200.06;;;18.76;36.56
13387;BME280;6763;48.524;9.044;2023-05-19T00:10:55;98191.44;;;18.74;36.69
13387;BME280;6763;48.524;9.044;2023-05-19T00:13:21;98192.41;;;18.72;36.46
13387;BME280;6763;48.524;9.044;2023-05-19T00:15:47;98190.69;;;18.71;36.46
13387;BME280;6763;48.524;9.044;2023-05-19T00:18:13;98189.78;;;18.72;36.43
13387;BME280;6763;48.524;9.044;2023-05-19T00:20:38;98190.69;;;18.71;36.51
13387;BME280;6763;48.524;9.044;2023-05-19T00:23:04;98185.53;;;18.69;36.67
13387;BME280;6763;48.524;9.044;2023-05-19T00:25:29;98189.06;;;18.68;36.74
13387;BME280;6763;48.524;9.044;2023-05-19T00:27:54;98187.25;;;18.70;36.13
13387;BME280;6763;48.524;9.044;2023-05-19T00:30:20;98185.53;;;18.69;36.78
13387;BME280;6763;48.524;9.044;2023-05-19T00:32:47;98182.19;;;18.66;36.78
13387;BME280;6763;48.524;9.044;2023-05-19T00:35:12;98188.28;;;18.66;36.58
13387;BME280;6763;48.524;9.044;2023-05-19T00:37:38;98183.94;;;18.65;36.70
13387;BME280;6763;48.524;9.044;2023-05-19T00:40:03;98189.19;;;18.65;36.86
13387;BME280;6763;48.524;9.044;2023-05-19T00:42:31;98183.94;;;18.65;36.82
13387;BME280;6763;48.524;9.044;2023-05-19T00:44:56;98186.56;;;18.65;37.01
13387;BME280;6763;48.524;9.044;2023-05-19T00:47:22;98182.28;;;18.64;36.85
13387;BME280;6763;48.524;9.044;2023-05-19T00:49:47;98172.69;;;18.63;36.76
13387;BME280;6763;48.524;9.044;2023-05-19T00:52:13;98162.28;;;18.62;37.14
13387;BME280;6763;48.524;9.044;2023-05-19T00:54:38;98166.75;;;18.60;37.22
13387;BME280;6763;48.524;9.044;2023-05-19T00:57:04;98165.88;;;18.59;37.07
13387;BME280;6763;48.524;9.044;2023-05-19T00:59:29;98171.25;;;18.56;37.28
13387;BME280;6763;48.524;9.044;2023-05-19T01:01:55;98163.53;;;18.53;37.36
13387;BME280;6763;48.524;9.044;2023-05-19T01:04:20;98171.47;;;18.51;37.36
13387;BME280;6763;48.524;9.044;2023-05-19T01:06:47;98158.41;;;18.50;37.64
13387;BME280;6763;48.524;9.044;2023-05-19T01:09:14;98153.31;;;18.47;37.60
13387;BME280;6763;48.524;9.044;2023-05-19T01:11:40;98153.34;;;18.45;37.75
13387;BME280;6763;48.524;9.044;2023-05-19T01:14:06;98149.97;;;18.43;37.66
13387;BME280;6763;48.524;9.044;2023-05-19T01:16:36;98163.06;;;18.43;37.87
13387;BME280;6763;48.524;9.044;2023-05-19T01:27:08;98164.19;;;18.38;37.99
13387;BME280;6763;48.524;9.044;2023-05-19T01:32:41;98172.28;;;18.32;38.42
13387;BME280;6763;48.524;9.044;2023-05-19T01:35:08;98172.25;;;18.33;38.08
13387;BME280;6763;48.524;9.044;2023-05-19T01:37:36;98180.03;;;18.35;38.30
13387;BME280;6763;48.524;9.044;2023-05-19T01:40:03;98172.28;;;18.32;38.15
13387;BME280;6763;48.524;9.044;2023-05-19T01:42:30;98162.66;;;18.32;38.03
13387;BME280;6763;48.524;9.044;2023-05-19T01:45:02;98169.69;;;18.32;38.00
13387;BME280;6763;48.524;9.044;2023-05-19T01:47:30;98169.69;;;18.32;38.30
13387;BME280;6763;48.524;9.044;2023-05-19T01:49:55;98165.38;;;18.31;38.07
13387;BME280;6763;48.524;9.044;2023-05-19T01:52:21;98161.94;;;18.29;38.33
13387;BME280;6763;48.524;9.044;2023-05-19T01:54:47;98161.13;;;18.28;38.22
13387;BME280;6763;48.524;9.044;2023-05-19T01:57:27;98157.63;;;18.28;38.13
13387;BME280;6763;48.524;9.044;2023-05-19T02:05:51;98160.59;;;18.20;38.65
13387;BME280;6763;48.524;9.044;2023-05-19T02:13:57;98156.34;;;18.18;38.59
13387;BME280;6763;48.524;9.044;2023-05-19T02:16:27;98159.84;;;18.17;38.48
13387;BME280;6763;48.524;9.044;2023-05-19T02:18:53;98156.38;;;18.16;38.67
13387;BME280;6763;48.524;9.044;2023-05-19T02:21:19;98159.06;;;18.15;38.44
13387;BME280;6763;48.524;9.044;2023-05-19T02:23:45;98162.59;;;18.14;38.72
13387;BME280;6763;48.524;9.044;2023-05-19T02:26:10;98156.50;;;18.13;38.62
13387;BME280;6763;48.524;9.044;2023-05-19T02:28:36;98158.34;;;18.11;38.85
13387;BME280;6763;48.524;9.044;2023-05-19T02:31:02;98156.72;;;18.09;38.67
13387;BME280;6763;48.524;9.044;2023-05-19T02:33:29;98153.31;;;18.07;38.89
13387;BME280;6763;48.524;9.044;2023-05-19T02:35:56;98156.06;;;18.04;38.99
13387;BME280;6763;48.524;9.044;2023-05-19T02:38:21;98149.25;;;18.00;39.58
13387;BME280;6763;48.524;9.044;2023-05-19T02:40:46;98155.59;;;17.94;39.53
13387;BME280;6763;48.524;9.044;2023-05-19T02:43:12;98152.34;;;17.89;39.85
13387;BME280;6763;48.524;9.044;2023-05-19T02:45:37;98154.16;;;17.87;39.84
13387;BME280;6763;48.524;9.044;2023-05-19T02:48:03;98156.91;;;17.84;39.88
13387;BME280;6763;48.524;9.044;2023-05-19T02:50:28;98151.72;;;17.82;39.71
13387;BME280;6763;48.524;9.044;2023-05-19T02:52:53;98153.63;;;17.79;39.77
13387;BME280;6763;48.524;9.044;2023-05-19T02:55:19;98151.91;;;17.78;40.02
13387;BME280;6763;48.524;9.044;2023-05-19T02:57:44;98153.69;;;17.77;40.00
13387;BME280;6763;48.524;9.044;2023-05-19T03:00:10;98151.13;;;17.76;39.87
13387;BME280;6763;48.524;9.044;2023-05-19T03:02:35;98152.91;;;17.75;39.75
13387;BME280;6763;48.524;9.044;2023-05-19T03:05:01;98149.41;;;17.75;40.14
13387;BME280;6763;48.524;9.044;2023-05-19T03:07:28;98152.91;;;17.75;39.67
13387;BME280;6763;48.524;9.044;2023-05-19T03:09:53;98146.88;;;17.73;39.90
13387;BME280;6763;48.524;9.044;2023-05-19T03:12:18;98151.25;;;17.73;39.90
13387;BME280;6763;48.524;9.044;2023-05-19T03:14:44;98146.09;;;17.71;39.97
13387;BME280;6763;48.524;9.044;2023-05-19T03:17:09;98149.69;;;17.69;40.07
13387;BME280;6763;48.524;9.044;2023-05-19T03:19:35;98149.75;;;17.67;39.98
13387;BME280;6763;48.524;9.044;2023-05-19T03:22:00;98155.91;;;17.66;40.26
13387;BME280;6763;48.524;9.044;2023-05-19T03:24:25;98154.19;;;17.65;40.09
13387;BME280;6763;48.524;9.044;2023-05-19T03:26:51;98156.03;;;17.63;40.03
13387;BME280;6763;48.524;9.044;2023-05-19T03:29:16;98158.75;;;17.60;39.83
13387;BME280;6763;48.524;9.044;2023-05-19T03:31:41;98159.75;;;17.58;40.20
13387;BME280;6763;48.524;9.044;2023-05-19T03:34:07;98158.88;;;17.57;39.87
13387;BME280;6763;48.524;9.044;2023-05-19T03:36:32;98155.53;;;17.54;39.93
13387;BME280;6763;48.524;9.044;2023-05-19T03:39:04;98156.47;;;17.51;40.36
13387;BME280;6763;48.524;9.044;2023-05-19T03:41:31;98158.38;;;17.48;40.10
13387;BME280;6763;48.524;9.044;2023-05-19T03:43:56;98163.66;;;17.46;40.42
13387;BME280;6763;48.524;9.044;2023-05-19T03:46:21;98158.50;;;17.45;40.03
13387;BME280;6763;48.524;9.044;2023-05-19T03:48:47;98155.88;;;17.45;40.49
13387;BME280;6763;48.524;9.044;2023-05-19T03:51:12;98161.13;;;17.45;40.35
13387;BME280;6763;48.524;9.044;2023-05-19T03:53:37;98161.22;;;17.42;40.44
13387;BME280;6763;48.524;9.044;2023-05-19T03:56:03;98160.38;;;17.41;40.58
13387;BME280;6763;48.524;9.044;2023-05-19T03:58:28;98155.91;;;17.43;40.32
13387;BME280;6763;48.524;9.044;2023-05-19T04:00:54;98160.34;;;17.43;40.50
13387;BME280;6763;48.524;9.044;2023-05-19T04:03:20;98149.91;;;17.41;40.13
13387;BME280;6763;48.524;9.044;2023-05-19T04:05:45;98159.47;;;17.42;40.13
13387;BME280;6763;48.524;9.044;2023-05-19T04:08:10;98156.84;;;17.42;40.03
13387;BME280;6763;48.524;9.044;2023-05-19T04:10:36;98160.38;;;17.41;40.32
13387;BME280;6763;48.524;9.044;2023-05-19T04:13:01;98165.56;;;17.43;39.96
13387;BME280;6763;48.524;9.044;2023-05-19T04:15:26;98159.41;;;17.44;40.26
13387;BME280;6763;48.524;9.044;2023-05-19T04:17:52;98160.25;;;17.44;40.07
13387;BME280;6763;48.524;9.044;2023-05-19T04:20:17;98166.41;;;17.43;40.01
13387;BME280;6763;48.524;9.044;2023-05-19T04:22:42;98165.59;;;17.41;40.21
13387;BME280;6763;48.524;9.044;2023-05-19T04:25:08;98157.72;;;17.43;39.83
13387;BME280;6763;48.524;9.044;2023-05-19T04:27:33;98157.63;;;17.44;40.01
13387;BME280;6763;48.524;9.044;2023-05-19T04:30:04;98163.63;;;17.48;39.85
13387;BME280;6763;48.524;9.044;2023-05-19T04:32:29;98158.31;;;17.49;40.01
13387;BME280;6763;48.524;9.044;2023-05-19T04:34:55;98153.94;;;17.50;40.07
13387;BME280;6763;48.524;9.044;2023-05-19T04:37:20;98155.56;;;17.52;40.03
13387;BME280;6763;48.524;9.044;2023-05-19T04:39:46;98154.72;;;17.52;39.77
13387;BME280;6763;48.524;9.044;2023-05-19T04:42:12;98158.16;;;17.54;39.61
13387;BME280;6763;48.524;9.044;2023-05-19T04:44:38;98154.56;;;17.56;39.81
13387;BME280;6763;48.524;9.044;2023-05-19T04:47:05;98159.53;;;17.62;39.54
13387;BME280;6763;48.524;9.044;2023-05-19T04:49:31;98161.84;;;17.70;39.28
13387;BME280;6763;48.524;9.044;2023-05-19T04:51:56;98165.00;;;17.78;39.27
13387;BME280;6763;48.524;9.044;2023-05-19T04:54:22;98169.06;;;17.85;38.94
13387;BME280;6763;48.524;9.044;2023-05-19T04:56:47;98164.38;;;17.93;39.10
13387;BME280;6763;48.524;9.044;2023-05-19T04:59:12;98161.41;;;18.01;38.95
13387;BME280;6763;48.524;9.044;2023-05-19T05:01:38;98155.03;;;18.08;38.93
13387;BME280;6763;48.524;9.044;2023-05-19T05:04:05;98157.38;;;18.14;38.91
13387;BME280;6763;48.524;9.044;2023-05-19T05:06:31;98158.09;;;18.17;39.16
13387;BME280;6763;48.524;9.044;2023-05-19T05:08:56;98162.56;;;18.15;38.77
13387;BME280;6763;48.524;9.044;2023-05-19T05:11:21;98159.28;;;18.10;38.73
13387;BME280;6763;48.524;9.044;2023-05-19T05:13:47;98154.09;;;18.09;38.69
13387;BME280;6763;48.524;9.044;2023-05-19T05:16:13;98153.19;;;18.10;38.97
13387;BME280;6763;48.524;9.044;2023-05-19T05:18:39;98153.06;;;18.13;38.99
13387;BME280;6763;48.524;9.044;2023-05-19T05:21:05;98160.72;;;18.17;38.73
13387;BME280;6763;48.524;9.044;2023-05-19T05:23:31;98158.75;;;18.22;38.99
13387;BME280;6763;48.524;9.044;2023-05-19T05:25:57;98161.91;;;18.30;38.87
13387;BME280;6763;48.524;9.044;2023-05-19T05:28:22;98155.19;;;18.43;38.66
13387;BME280;6763;48.524;9.044;2023-05-19T05:30:48;98160.66;;;18.59;38.53
13387;BME280;6763;48.524;9.044;2023-05-19T05:33:15;98157.97;;;18.79;38.03
13387;BME280;6763;48.524;9.044;2023-05-19T05:35:41;98154.41;;;18.99;37.86
13387;BME280;6763;48.524;9.044;2023-05-19T05:38:07;98151.88;;;19.16;37.17
13387;BME280;6763;48.524;9.044;2023-05-19T05:40:32;98161.44;;;19.17;36.90
13387;BME280;6763;48.524;9.044;2023-05-19T05:42:58;98158.91;;;19.15;36.90
13387;BME280;6763;48.524;9.044;2023-05-19T05:45:23;98160.81;;;19.12;37.02
13387;BME280;6763;48.524;9.044;2023-05-19T05:47:50;98159.97;;;19.11;36.88
13387;BME280;6763;48.524;9.044;2023-05-19T05:50:16;98161.03;;;19.07;37.02
13387;BME280;6763;48.524;9.044;2023-05-19T05:52:45;98166.00;;;19.13;36.90
13387;BME280;6763;48.524;9.044;2023-05-19T05:55:11;98160.28;;;19.23;36.79
13387;BME280;6763;48.524;9.044;2023-05-19T05:57:37;98159.78;;;19.33;36.89
13387;BME280;6763;48.524;9.044;2023-05-19T06:00:03;98160.03;;;19.47;36.55
13387;BME280;6763;48.524;9.044;2023-05-19T06:02:34;98165.25;;;19.66;36.40
13387;BME280;6763;48.524;9.044;2023-05-19T06:05:00;98158.28;;;19.82;35.82
13387;BME280;6763;48.524;9.044;2023-05-19T06:07:26;98168.34;;;19.91;36.19
13387;BME280;6763;48.524;9.044;2023-05-19T06:09:51;98160.56;;;20.07;35.74
13387;BME280;6763;48.524;9.044;2023-05-19T06:12:17;98157.06;;;20.06;35.15
13387;BME280;6763;48.524;9.044;2023-05-19T06:14:42;98165.09;;;20.03;35.08
13387;BME280;6763;48.524;9.044;2023-05-19T06:17:07;98162.63;;;20.00;35.22
13387;BME280;6763;48.524;9.044;2023-05-19T06:19:33;98159.16;;;20.00;35.00
13387;BME280;6763;48.524;9.044;2023-05-19T06:21:58;98163.47;;;20.01;35.11
13387;BME280;6763;48.524;9.044;2023-05-19T06:24:23;98157.78;;;20.10;35.19
13387;BME280;6763;48.524;9.044;2023-05-19T06:26:49;98162.69;;;20.16;35.27
13387;BME280;6763;48.524;9.044;2023-05-19T06:29:14;98153.75;;;20.20;34.81
13387;BME280;6763;48.524;9.044;2023-05-19T06:31:39;98153.44;;;20.26;34.69
13387;BME280;6763;48.524;9.044;2023-05-19T06:34:05;98145.25;;;20.32;34.68
13387;BME280;6763;48.524;9.044;2023-05-19T06:36:30;98155.38;;;20.39;34.52
13387;BME280;6763;48.524;9.044;2023-05-19T06:38:56;98149.31;;;20.55;34.62
13387;BME280;6763;48.524;9.044;2023-05-19T06:41:21;98151.22;;;20.68;34.61
13387;BME280;6763;48.524;9.044;2023-05-19T06:43:47;98147.84;;;20.82;34.30
13387;BME280;6763;48.524;9.044;2023-05-19T06:46:12;98149.19;;;20.89;34.05
13387;BME280;6763;48.524;9.044;2023-05-19T06:48:38;98151.16;;;20.85;34.04
13387;BME280;6763;48.524;9.044;2023-05-19T06:51:03;98155.63;;;20.83;33.99
13387;BME280;6763;48.524;9.044;2023-05-19T06:53:29;98153.16;;;20.80;34.09
13387;BME280;6763;48.524;9.044;2023-05-19T06:55:55;98149.94;;;20.75;33.71
13387;BME280;6763;48.524;9.044;2023-05-19T06:58:20;98149.53;;;20.67;33.91
13387;BME280;6763;48.524;9.044;2023-05-19T07:00:45;98156.56;;;20.67;34.00
13387;BME280;6763;48.524;9.044;2023-05-19T07:03:11;98157.59;;;20.80;34.26
13387;BME280;6763;48.524;9.044;2023-05-19T07:05:36;98151.34;;;20.98;33.97
13387;BME280;6763;48.524;9.044;2023-05-19T07:08:01;98148.25;;;21.23;33.64
13387;BME280;6763;48.524;9.044;2023-05-19T07:10:27;98147.97;;;21.43;33.45
13387;BME280;6763;48.524;9.044;2023-05-19T07:12:52;98146.44;;;21.54;33.18
13387;BME280;6763;48.524;9.044;2023-05-19T07:15:18;98159.28;;;21.60;33.19
13387;BME280;6763;48.524;9.044;2023-05-19T07:17:43;98152.03;;;21.64;33.18
13387;BME280;6763;48.524;9.044;2023-05-19T07:20:09;98147.50;;;21.66;32.77
13387;BME280;6763;48.524;9.044;2023-05-19T07:22:35;98144.13;;;21.64;32.79
13387;BME280;6763;48.524;9.044;2023-05-19T07:25:01;98139.81;;;21.63;32.73
13387;BME280;6763;48.524;9.044;2023-05-19T07:27:26;98142.44;;;21.63;32.78
13387;BME280;6763;48.524;9.044;2023-05-19T07:29:51;98148.47;;;21.49;32.74
13387;BME280;6763;48.524;9.044;2023-05-19T07:32:17;98154.03;;;21.29;32.75
13387;BME280;6763;48.524;9.044;2023-05-19T07:34:42;98148.06;;;21.10;33.34
13387;BME280;6763;48.524;9.044;2023-05-19T07:37:08;98145.56;;;20.91;33.45
13387;BME280;6763;48.524;9.044;2023-05-19T07:39:34;98149.78;;;20.78;33.81
13387;BME280;6763;48.524;9.044;2023-05-19T07:42:00;98148.00;;;20.79;33.88
13387;BME280;6763;48.524;9.044;2023-05-19T07:44:25;98153.88;;;20.84;33.95
13387;BME280;6763;48.524;9.044;2023-05-19T07:46:51;98158.44;;;20.80;34.00
13387;BME280;6763;48.524;9.044;2023-05-19T07:49:17;98159.94;;;20.69;34.02
13387;BME280;6763;48.524;9.044;2023-05-19T07:51:42;98156.53;;;20.51;34.48
13387;BME280;6763;48.524;9.044;2023-05-19T07:54:07;98151.97;;;20.37;34.50
13387;BME280;6763;48.524;9.044;2023-05-19T07:56:33;98156.63;;;20.32;34.69
13387;BME280;6763;48.524;9.044;2023-05-19T07:58:58;98148.50;;;20.37;34.79
13387;BME280;6763;48.524;9.044;2023-05-19T08:01:23;98149.81;;;20.46;34.51
13387;BME280;6763;48.524;9.044;2023-05-19T08:03:49;98148.22;;;20.59;34.25
13387;BME280;6763;48.524;9.044;2023-05-19T08:06:14;98144.56;;;20.61;34.36
13387;BME280;6763;48.524;9.044;2023-05-19T08:08:39;98139.47;;;20.58;34.42
13387;BME280;6763;48.524;9.044;2023-05-19T08:11:06;98146.44;;;20.59;34.54
13387;BME280;6763;48.524;9.044;2023-05-19T08:13:31;98144.88;;;20.72;34.37
13387;BME280;6763;48.524;9.044;2023-05-19T08:15:57;98134.97;;;20.93;34.09
13387;BME280;6763;48.524;9.044;2023-05-19T08:18:27;98142.28;;;21.03;33.71
13387;BME280;6763;48.524;9.044;2023-05-19T08:20:52;98131.66;;;21.05;33.65
13387;BME280;6763;48.524;9.044;2023-05-19T08:23:18;98128.34;;;21.17;33.66
13387;BME280;6763;48.524;9.044;2023-05-19T08:25:43;98125.66;;;21.34;33.34
13387;BME280;6763;48.524;9.044;2023-05-19T08:28:09;98125.44;;;21.53;33.14
13387;BME280;6763;48.524;9.044;2023-05-19T08:30:35;98126.09;;;21.72;32.97
13387;BME280;6763;48.524;9.044;2023-05-19T08:33:00;98116.47;;;21.87;32.60
13387;BME280;6763;48.524;9.044;2023-05-19T08:35:26;98118.22;;;22.02;32.49
13387;BME280;6763;48.524;9.044;2023-05-19T08:37:51;98117.19;;;22.18;32.68
13387;BME280;6763;48.524;9.044;2023-05-19T08:40:17;98123.25;;;22.35;32.11
13387;BME280;6763;48.524;9.044;2023-05-19T08:42:46;98111.38;;;22.42;31.79
13387;BME280;6763;48.524;9.044;2023-05-19T08:45:12;98109.31;;;22.47;31.78
13387;BME280;6763;48.524;9.044;2023-05-19T08:47:40;98111.28;;;22.57;31.66
13387;BME280;6763;48.524;9.044;2023-05-19T08:50:06;98119.63;;;22.65;31.45
13387;BME280;6763;48.524;9.044;2023-05-19T08:52:48;98115.06;;;22.53;31.09
13387;BME280;6763;48.524;9.044;2023-05-19T08:55:46;98111.56;;;22.24;31.62
13387;BME280;6763;48.524;9.044;2023-05-19T08:58:14;98115.53;;;22.17;31.88
13387;BME280;6763;48.524;9.044;2023-05-19T09:00:41;98112.59;;;22.22;32.02
13387;BME280;6763;48.524;9.044;2023-05-19T09:03:07;98108.47;;;22.32;31.71
13387;BME280;6763;48.524;9.044;2023-05-19T09:05:32;98105.06;;;22.44;31.64
13387;BME280;6763;48.524;9.044;2023-05-19T09:07:58;98107.63;;;22.46;31.59
13387;BME280;6763;48.524;9.044;2023-05-19T09:10:26;98108.00;;;22.40;31.65
13387;BME280;6763;48.524;9.044;2023-05-19T09:12:52;98109.22;;;22.34;31.71
13387;BME280;6763;48.524;9.044;2023-05-19T09:15:18;98102.81;;;22.24;31.57
13387;BME280;6763;48.524;9.044;2023-05-19T09:17:44;98108.81;;;22.12;31.87
13387;BME280;6763;48.524;9.044;2023-05-19T09:20:12;98109.09;;;22.21;32.08
13387;BME280;6763;48.524;9.044;2023-05-19T09:22:45;98099.41;;;22.36;31.77
13387;BME280;6763;48.524;9.044;2023-05-19T09:25:24;98114.59;;;22.47;31.63
13387;BME280;6763;48.524;9.044;2023-05-19T09:27:53;98109.31;;;22.47;31.50
13387;BME280;6763;48.524;9.044;2023-05-19T09:30:18;98105.00;;;22.46;31.31
13387;BME280;6763;48.524;9.044;2023-05-19T09:32:44;98107.44;;;22.49;31.42
13387;BME280;6763;48.524;9.044;2023-05-19T09:35:11;98104.03;;;22.47;31.59
13387;BME280;6763;48.524;9.044;2023-05-19T09:37:40;98105.38;;;22.54;31.62
13387;BME280;6763;48.524;9.044;2023-05-19T09:40:09;98098.78;;;22.61;31.51
13387;BME280;6763;48.524;9.044;2023-05-19T09:42:38;98100.56;;;22.60;31.48
13387;BME280;6763;48.524;9.044;2023-05-19T09:45:05;98097.91;;;22.60;31.41
13387;BME280;6763;48.524;9.044;2023-05-19T09:47:34;98096.31;;;22.58;30.83
13387;BME280;6763;48.524;9.044;2023-05-19T09:50:01;98087.75;;;22.40;31.14
13387;BME280;6763;48.524;9.044;2023-05-19T09:52:26;98090.47;;;22.39;31.43
13387;BME280;6763;48.524;9.044;2023-05-19T09:54:52;98091.41;;;22.38;31.33
13387;BME280;6763;48.524;9.044;2023-05-19T09:57:25;98095.44;;;22.29;31.47
13387;BME280;6763;48.524;9.044;2023-05-19T09:59:53;98084.91;;;22.15;31.60
13387;BME280;6763;48.524;9.044;2023-05-19T10:02:21;98101.59;;;21.86;31.56
13387;BME280;6763;48.524;9.044;2023-05-19T10:04:51;98107.22;;;21.64;31.98
13387;BME280;6763;48.524;9.044;2023-05-19T10:07:17;98113.13;;;21.53;32.56
13387;BME280;6763;48.524;9.044;2023-05-19T10:09:43;98110.66;;;21.50;32.47
13387;BME280;6763;48.524;9.044;2023-05-19T10:12:10;98099.63;;;21.44;32.54
13387;BME280;6763;48.524;9.044;2023-05-19T10:14:37;98109.25;;;21.29;32.66
13387;BME280;6763;48.524;9.044;2023-05-19T10:17:03;98104.66;;;21.17;32.69
13387;BME280;6763;48.524;9.044;2023-05-19T10:19:28;98104.25;;;21.09;32.82
13387;BME280;6763;48.524;9.044;2023-05-19T10:21:54;98100.41;;;21.15;33.21
13387;BME280;6763;48.524;9.044;2023-05-19T10:24:20;98105.53;;;21.18;32.89
13387;BME280;6763;48.524;9.044;2023-05-19T10:27:09;98103.91;;;21.15;32.91
13387;BME280;6763;48.524;9.044;2023-05-19T10:29:38;98107.06;;;21.22;32.54
13387;BME280;6763;48.524;9.044;2023-05-19T10:32:10;98102.63;;;21.22;32.64
13387;BME280;6763;48.524;9.044;2023-05-19T10:37:33;98097.59;;;21.49;32.35
13387;BME280;6763;48.524;9.044;2023-05-19T10:40:06;98106.75;;;21.57;32.18
13387;BME280;6763;48.524;9.044;2023-05-19T10:42:43;98100.63;;;21.57;32.06
13387;BME280;6763;48.524;9.044;2023-05-19T10:45:19;98102.84;;;21.49;32.38
13387;BME280;6763;48.524;9.044;2023-05-19T10:47:46;98105.38;;;21.50;32.74
13387;BME280;6763;48.524;9.044;2023-05-19T10:50:11;98097.06;;;21.58;32.70
13387;BME280;6763;48.524;9.044;2023-05-19T10:52:38;98102.66;;;21.68;32.60
13387;BME280;6763;48.524;9.044;2023-05-19T10:55:07;98101.06;;;21.79;32.45
13387;BME280;6763;48.524;9.044;2023-05-19T10:57:34;98099.53;;;21.91;32.33
13387;BME280;6763;48.524;9.044;2023-05-19T11:00:25;98105.25;;;21.83;32.12
13387;BME280;6763;48.524;9.044;2023-05-19T11:02:49;98108.66;;;21.70;32.24
13387;BME280;6763;48.524;9.044;2023-05-19T11:05:27;98099.06;;;21.69;32.46
13387;BME280;6763;48.524;9.044;2023-05-19T11:07:58;98098.34;;;21.81;32.48
13387;BME280;6763;48.524;9.044;2023-05-19T11:10:32;98104.06;;;22.03;32.28
13387;BME280;6763;48.524;9.044;2023-05-19T11:12:58;98091.41;;;22.23;31.90
13387;BME280;6763;48.524;9.044;2023-05-19T11:15:27;98099.97;;;22.27;31.61
13387;BME280;6763;48.524;9.044;2023-05-19T11:17:52;98090.81;;;22.18;31.55
13387;BME280;6763;48.524;9.044;2023-05-19T11:20:26;98093.84;;;22.12;31.87
13387;BME280;6763;48.524;9.044;2023-05-19T11:23:09;98092.72;;;22.16;31.85
13387;BME280;6763;48.524;9.044;2023-05-19T11:25:43;98091.88;;;22.30;31.73
13387;BME280;6763;48.524;9.044;2023-05-19T11:28:15;98092.44;;;22.35;31.69
13387;BME280;6763;48.524;9.044;2023-05-19T11:30:41;98091.25;;;22.41;31.64
13387;BME280;6763;48.524;9.044;2023-05-19T11:33:08;98094.44;;;22.46;31.40
13387;BME280;6763;48.524;9.044;2023-05-19T11:35:33;98091.25;;;22.41;31.15
13387;BME280;6763;48.524;9.044;2023-05-19T11:38:00;98098.03;;;22.31;31.18
13387;BME280;6763;48.524;9.044;2023-05-19T11:40:25;98104.31;;;22.28;31.61
13387;BME280;6763;48.524;9.044;2023-05-19T11:42:51;98092.75;;;22.31;31.48
13387;BME280;6763;48.524;9.044;2023-05-19T11:45:16;98098.38;;;22.39;31.46
13387;BME280;6763;48.524;9.044;2023-05-19T11:47:48;98095.94;;;22.36;31.24
13387;BME280;6763;48.524;9.044;2023-05-19T11:50:13;98098.28;;;22.26;31.44
13387;BME280;6763;48.524;9.044;2023-05-19T11:52:43;98104.31;;;22.28;31.55
13387;BME280;6763;48.524;9.044;2023-05-19T11:55:14;98090.19;;;22.29;31.33
13387;BME280;6763;48.524;9.044;2023-05-19T11:57:39;98085.19;;;22.24;31.20
13387;BME280;6763;48.524;9.044;2023-05-19T12:00:05;98092.91;;;22.13;31.54
13387;BME280;6763;48.524;9.044;2023-05-19T12:02:32;98084.78;;;22.02;31.41
13387;BME280;6763;48.524;9.044;2023-05-19T12:04:57;98084.69;;;22.04;31.53
13387;BME280;6763;48.524;9.044;2023-05-19T12:07:23;98086.38;;;22.05;31.67
13387;BME280;6763;48.524;9.044;2023-05-19T12:09:50;98089.41;;;22.13;31.67
13387;BME280;6763;48.524;9.044;2023-05-19T12:12:17;98089.34;;;22.14;31.31
13387;BME280;6763;48.524;9.044;2023-05-19T12:14:43;98083.94;;;22.16;31.37
13387;BME280;6763;48.524;9.044;2023-05-19T12:17:15;98087.25;;;22.19;31.46
13387;BME280;6763;48.524;9.044;2023-05-19T12:19:45;98084.97;;;22.13;30.96
13387;BME280;6763;48.524;9.044;2023-05-19T12:22:12;98095.13;;;22.05;31.27
13387;BME280;6763;48.524;9.044;2023-05-19T12:24:38;98101.03;;;21.95;31.34
13387;BME280;6763;48.524;9.044;2023-05-19T12:27:24;98094.97;;;21.79;31.95
13387;BME280;6763;48.524;9.044;2023-05-19T12:29:55;98095.16;;;21.76;31.79
13387;BME280;6763;48.524;9.044;2023-05-19T12:32:25;98097.59;;;21.79;32.31
13387;BME280;6763;48.524;9.044;2023-05-19T12:34:51;98099.22;;;21.81;31.97
13387;BME280;6763;48.524;9.044;2023-05-19T12:37:16;98103.53;;;21.82;32.24
13387;BME280;6763;48.524;9.044;2023-05-19T12:39:44;98108.63;;;21.85;31.95
13387;BME280;6763;48.524;9.044;2023-05-19T12:42:10;98107.34;;;21.92;31.88
13387;BME280;6763;48.524;9.044;2023-05-19T12:44:37;98101.53;;;22.01;32.05
13387;BME280;6763;48.524;9.044;2023-05-19T12:47:04;98105.44;;;22.10;31.77
13387;BME280;6763;48.524;9.044;2023-05-19T12:49:31;98114.28;;;22.23;31.96
13387;BME280;6763;48.524;9.044;2023-05-19T12:52:00;98106.22;;;22.40;31.59
13387;BME280;6763;48.524;9.044;2023-05-19T12:54:25;98100.00;;;22.55;31.48
13387;BME280;6763;48.524;9.044;2023-05-19T12:56:51;98105.94;;;22.59;30.77
13387;BME280;6763;48.524;9.044;2023-05-19T12:59:23;98103.28;;;22.45;30.85
13387;BME280;6763;48.524;9.044;2023-05-19T13:01:56;98088.56;;;22.27;31.12
13387;BME280;6763;48.524;9.044;2023-05-19T13:04:22;98093.19;;;22.09;31.42
13387;BME280;6763;48.524;9.044;2023-05-19T13:06:48;98100.78;;;21.99;31.61
13387;BME280;6763;48.524;9.044;2023-05-19T13:09:14;98092.59;;;22.04;31.38
13387;BME280;6763;48.524;9.044;2023-05-19T13:11:40;98101.19;;;22.07;31.42
13387;BME280;6763;48.524;9.044;2023-05-19T13:14:07;98089.63;;;22.24;31.45
13387;BME280;6763;48.524;9.044;2023-05-19T13:16:33;98088.41;;;22.44;31.32
13387;BME280;6763;48.524;9.044;2023-05-19T13:18:58;98090.78;;;22.62;30.96
13387;BME280;6763;48.524;9.044;2023-05-19T13:21:23;98093.78;;;22.70;30.79
13387;BME280;6763;48.524;9.044;2023-05-19T13:23:49;98089.19;;;22.74;30.78
13387;BME280;6763;48.524;9.044;2023-05-19T13:26:14;98090.84;;;22.75;30.76
13387;BME280;6763;48.524;9.044;2023-05-19T13:28:39;98070.50;;;22.77;30.78
13387;BME280;6763;48.524;9.044;2023-05-19T13:31:04;98085.22;;;22.67;30.83
13387;BME280;6763;48.524;9.044;2023-05-19T13:33:30;98079.28;;;22.63;31.06